sensor_id;sensor_type;location;lat;lon;timestamp;temperature;humidity
24772;DHT22;12870;52.274;9.754;2023-05-14T00:01:08;11.90;99.90
24772;DHT22;12870;52.274;9.754;2023-05-14T00:03:34;12.00;99.90
24772;DHT22;12870;52.274;9.754;2023-05-14T00:06:01;12.00;99.90
24772;DHT22;12870;52.274;9.754;2023-05-14T00:08:27;12.00;99.90
24772;DHT22;12870;52.274;9.754;2023-05-14T00:10:53;11.90;99.90
24772;DHT22;12870;52.274;9.754;2023-05-14T00:13:19;11.90;99.90
24772;DHT22;12870;52.274;9.754;2023-05-14T00:15:44;11.90;99.90
24772;DHT22;12870;52.274;9.754;2023-05-14T00:18:10;11.90;99.90
24772;DHT22;12870;52.274;9.754;2023-05-14T00:20:36;11.80;99.90
24772;DHT22;12870;52.274;9.754;2023-05-14T00:23:02;11.80;99.90
24772;DHT22;12870;52.274;9.754;2023-05-14T00:25:28;11.80;99.90
24772;DHT22;12870;52.274;9.754;2023-05-14T00:27:53;11.70;99.90
24772;DHT22;12870;52.274;9.754;2023-05-14T00:30:19;11.70;99.90
24772;DHT22;12870;52.274;9.754;2023-05-14T00:32:45;11.60;99.90
24772;DHT22;12870;52.274;9.754;2023-05-14T00:35:10;11.60;99.90
24772;DHT22;12870;52.274;9.754;2023-05-14T00:37:36;11.60;99.90
24772;DHT22;12870;52.274;9.754;2023-05-14T00:40:02;11.50;99.90
24772;DHT22;12870;52.274;9.754;2023-05-14T00:42:28;11.50;99.90
24772;DHT22;12870;52.274;9.754;2023-05-14T00:44:54;11.50;99.90
24772;DHT22;12870;52.274;9.754;2023-05-14T00:47:20;11.40;99.90
24772;DHT22;12870;52.274;9.754;2023-05-14T00:49:45;11.40;99.90
24772;DHT22;12870;52.274;9.754;2023-05-14T00:52:11;11.30;99.90
24772;DHT22;12870;52.274;9.754;2023-05-14T00:54:37;11.30;99.90
24772;DHT22;12870;52.274;9.754;2023-05-14T00:57:05;11.20;99.90
24772;DHT22;12870;52.274;9.754;2023-05-14T00:59:31;11.20;99.90
24772;DHT22;12870;52.274;9.754;2023-05-14T01:01:57;11.10;99.90
24772;DHT22;12870;52.274;9.754;2023-05-14T01:04:22;11.10;99.90
24772;DHT22;12870;52.274;9.754;2023-05-14T01:09:41;11.00;99.90
24772;DHT22;12870;52.274;9.754;2023-05-14T01:15:01;10.90;99.90
24772;DHT22;12870;52.274;9.754;2023-05-14T01:17:28;10.90;99.90
24772;DHT22;12870;52.274;9.754;2023-05-14T01:19:55;10.90;99.90
24772;DHT22;12870;52.274;9.754;2023-05-14T01:22:22;10.80;99.90
24772;DHT22;12870;52.274;9.754;2023-05-14T01:24:47;10.80;99.90
24772;DHT22;12870;52.274;9.754;2023-05-14T01:32:47;10.70;99.90
24772;DHT22;12870;52.274;9.754;2023-05-14T01:35:15;10.70;99.90
24772;DHT22;12870;52.274;9.754;2023-05-14T01:37:42;10.60;99.90
24772;DHT22;12870;52.274;9.754;2023-05-14T01:40:09;10.60;99.90
24772;DHT22;12870;52.274;9.754;2023-05-14T01:42:35;10.50;99.90
24772;DHT22;12870;52.274;9.754;2023-05-14T01:45:02;10.50;99.90
24772;DHT22;12870;52.274;9.754;2023-05-14T01:47:27;10.40;99.90
24772;DHT22;12870;52.274;9.754;2023-05-14T01:49:53;10.40;99.90
24772;DHT22;12870;52.274;9.754;2023-05-14T01:52:19;10.30;99.90
24772;DHT22;12870;52.274;9.754;2023-05-14T01:54:46;10.30;99.90
24772;DHT22;12870;52.274;9.754;2023-05-14T01:57:12;10.30;99.90
24772;DHT22;12870;52.274;9.754;2023-05-14T01:59:38;10.20;99.90
24772;DHT22;12870;52.274;9.754;2023-05-14T02:02:03;10.20;99.90
24772;DHT22;12870;52.274;9.754;2023-05-14T02:04:29;10.20;99.90
24772;DHT22;12870;52.274;9.754;2023-05-14T02:06:55;10.30;99.90
24772;DHT22;12870;52.274;9.754;2023-05-14T02:09:20;10.20;99.90
24772;DHT22;12870;52.274;9.754;2023-05-14T02:11:46;10.20;99.90
24772;DHT22;12870;52.274;9.754;2023-05-14T02:14:12;10.20;99.90
24772;DHT22;12870;52.274;9.754;2023-05-14T02:16:39;10.20;99.90
24772;DHT22;12870;52.274;9.754;2023-05-14T02:19:05;10.20;99.90
24772;DHT22;12870;52.274;9.754;2023-05-14T02:21:30;10.10;99.90
24772;DHT22;12870;52.274;9.754;2023-05-14T02:23:56;10.10;99.90
24772;DHT22;12870;52.274;9.754;2023-05-14T02:26:22;10.00;99.90
24772;DHT22;12870;52.274;9.754;2023-05-14T02:28:47;10.00;99.90
24772;DHT22;12870;52.274;9.754;2023-05-14T02:31:13;10.00;99.90
24772;DHT22;12870;52.274;9.754;2023-05-14T02:33:39;10.00;99.90
24772;DHT22;12870;52.274;9.754;2023-05-14T02:36:05;9.90;99.90
24772;DHT22;12870;52.274;9.754;2023-05-14T02:38:30;10.00;99.90
24772;DHT22;12870;52.274;9.754;2023-05-14T02:40:56;10.00;99.90
24772;DHT22;12870;52.274;9.754;2023-05-14T02:43:22;10.00;99.90
24772;DHT22;12870;52.274;9.754;2023-05-14T02:45:47;10.00;99.90
24772;DHT22;12870;52.274;9.754;2023-05-14T02:48:13;10.00;99.90
24772;DHT22;12870;52.274;9.754;2023-05-14T02:50:39;10.00;99.90
24772;DHT22;12870;52.274;9.754;2023-05-14T02:53:04;10.00;99.90
24772;DHT22;12870;52.274;9.754;2023-05-14T02:55:30;10.00;99.90
24772;DHT22;12870;52.274;9.754;2023-05-14T02:57:56;10.00;99.90
24772;DHT22;12870;52.274;9.754;2023-05-14T03:00:21;9.90;99.90
24772;DHT22;12870;52.274;9.754;2023-05-14T03:02:47;9.90;99.90
24772;DHT22;12870;52.274;9.754;2023-05-14T03:05:13;9.90;99.90
24772;DHT22;12870;52.274;9.754;2023-05-14T03:07:38;9.80;99.90
24772;DHT22;12870;52.274;9.754;2023-05-14T03:10:04;9.80;99.90
24772;DHT22;12870;52.274;9.754;2023-05-14T03:12:30;9.70;99.90
24772;DHT22;12870;52.274;9.754;2023-05-14T03:14:56;9.70;99.90
24772;DHT22;12870;52.274;9.754;2023-05-14T03:17:21;9.70;99.90
24772;DHT22;12870;52.274;9.754;2023-05-14T03:19:47;9.60;99.90
24772;DHT22;12870;52.274;9.754;2023-05-14T03:22:13;9.60;99.90
24772;DHT22;12870;52.274;9.754;2023-05-14T03:24:39;9.50;99.90
24772;DHT22;12870;52.274;9.754;2023-05-14T03:27:05;9.50;99.90
24772;DHT22;12870;52.274;9.754;2023-05-14T03:29:31;9.50;99.90
24772;DHT22;12870;52.274;9.754;2023-05-14T03:31:56;9.50;99.90
24772;DHT22;12870;52.274;9.754;2023-05-14T03:34:22;9.50;99.90
24772;DHT22;12870;52.274;9.754;2023-05-14T03:36:48;9.50;99.90
24772;DHT22;12870;52.274;9.754;2023-05-14T03:39:14;9.50;99.90
24772;DHT22;12870;52.274;9.754;2023-05-14T03:41:44;9.50;99.90
24772;DHT22;12870;52.274;9.754;2023-05-14T03:44:10;9.40;99.90
24772;DHT22;12870;52.274;9.754;2023-05-14T03:46:36;9.40;99.90
24772;DHT22;12870;52.274;9.754;2023-05-14T03:49:02;9.40;99.90
24772;DHT22;12870;52.274;9.754;2023-05-14T03:51:27;9.40;99.90
24772;DHT22;12870;52.274;9.754;2023-05-14T03:53:53;9.40;99.90
24772;DHT22;12870;52.274;9.754;2023-05-14T03:56:18;9.50;99.90
24772;DHT22;12870;52.274;9.754;2023-05-14T03:58:44;9.50;99.90
24772;DHT22;12870;52.274;9.754;2023-05-14T04:01:10;9.50;99.90
24772;DHT22;12870;52.274;9.754;2023-05-14T04:03:35;9.50;99.90
24772;DHT22;12870;52.274;9.754;2023-05-14T04:06:01;9.50;99.90
24772;DHT22;12870;52.274;9.754;2023-05-14T04:08:27;9.50;99.90
24772;DHT22;12870;52.274;9.754;2023-05-14T04:10:52;9.50;99.90
24772;DHT22;12870;52.274;9.754;2023-05-14T04:13:18;9.60;99.90
24772;DHT22;12870;52.274;9.754;2023-05-14T04:15:44;9.60;99.90
24772;DHT22;12870;52.274;9.754;2023-05-14T04:18:09;9.70;99.90
24772;DHT22;12870;52.274;9.754;2023-05-14T04:20:35;9.70;99.90
24772;DHT22;12870;52.274;9.754;2023-05-14T04:23:01;9.70;99.90
24772;DHT22;12870;52.274;9.754;2023-05-14T04:25:27;9.80;99.90
24772;DHT22;12870;52.274;9.754;2023-05-14T04:27:52;9.80;99.90
24772;DHT22;12870;52.274;9.754;2023-05-14T04:30:18;9.90;99.90
24772;DHT22;12870;52.274;9.754;2023-05-14T04:32:44;9.90;99.90
24772;DHT22;12870;52.274;9.754;2023-05-14T04:35:10;10.00;99.90
24772;DHT22;12870;52.274;9.754;2023-05-14T04:37:36;10.10;99.90
24772;DHT22;12870;52.274;9.754;2023-05-14T04:40:04;10.10;99.90
24772;DHT22;12870;52.274;9.754;2023-05-14T04:42:30;10.20;99.90
24772;DHT22;12870;52.274;9.754;2023-05-14T04:44:56;10.30;99.90
24772;DHT22;12870;52.274;9.754;2023-05-14T04:47:21;10.40;99.90
24772;DHT22;12870;52.274;9.754;2023-05-14T04:49:47;10.50;99.90
24772;DHT22;12870;52.274;9.754;2023-05-14T04:52:13;10.50;99.90
24772;DHT22;12870;52.274;9.754;2023-05-14T04:54:38;10.60;99.90
24772;DHT22;12870;52.274;9.754;2023-05-14T04:57:04;10.60;99.90
24772;DHT22;12870;52.274;9.754;2023-05-14T04:59:30;10.70;99.90
24772;DHT22;12870;52.274;9.754;2023-05-14T05:01:56;10.70;99.90
24772;DHT22;12870;52.274;9.754;2023-05-14T05:04:22;10.80;99.90
24772;DHT22;12870;52.274;9.754;2023-05-14T05:06:49;10.90;99.90
24772;DHT22;12870;52.274;9.754;2023-05-14T05:09:16;11.00;99.90
24772;DHT22;12870;52.274;9.754;2023-05-14T05:11:41;11.10;99.90
24772;DHT22;12870;52.274;9.754;2023-05-14T05:14:07;11.20;99.90
24772;DHT22;12870;52.274;9.754;2023-05-14T05:16:33;11.30;99.90
24772;DHT22;12870;52.274;9.754;2023-05-14T05:18:58;11.40;99.90
24772;DHT22;12870;52.274;9.754;2023-05-14T05:21:24;11.50;99.90
24772;DHT22;12870;52.274;9.754;2023-05-14T05:23:50;11.50;99.90
24772;DHT22;12870;52.274;9.754;2023-05-14T05:26:16;11.60;99.90
24772;DHT22;12870;52.274;9.754;2023-05-14T05:28:41;11.70;99.90
24772;DHT22;12870;52.274;9.754;2023-05-14T05:31:07;11.80;99.90
24772;DHT22;12870;52.274;9.754;2023-05-14T05:33:33;11.90;99.90
24772;DHT22;12870;52.274;9.754;2023-05-14T05:35:59;12.00;99.90
24772;DHT22;12870;52.274;9.754;2023-05-14T05:38:25;12.10;99.90
24772;DHT22;12870;52.274;9.754;2023-05-14T05:40:51;12.20;99.90
24772;DHT22;12870;52.274;9.754;2023-05-14T05:43:17;12.20;99.90
24772;DHT22;12870;52.274;9.754;2023-05-14T05:45:43;12.30;99.90
24772;DHT22;12870;52.274;9.754;2023-05-14T05:48:10;12.30;99.90
24772;DHT22;12870;52.274;9.754;2023-05-14T05:50:36;12.40;99.90
24772;DHT22;12870;52.274;9.754;2023-05-14T05:53:02;12.40;99.90
24772;DHT22;12870;52.274;9.754;2023-05-14T05:55:28;12.50;99.90
24772;DHT22;12870;52.274;9.754;2023-05-14T05:57:54;12.60;99.90
24772;DHT22;12870;52.274;9.754;2023-05-14T06:00:21;12.70;99.90
24772;DHT22;12870;52.274;9.754;2023-05-14T06:02:47;12.70;99.90
24772;DHT22;12870;52.274;9.754;2023-05-14T06:05:13;12.80;99.90
24772;DHT22;12870;52.274;9.754;2023-05-14T06:07:38;12.90;99.90
24772;DHT22;12870;52.274;9.754;2023-05-14T06:10:04;13.00;99.90
24772;DHT22;12870;52.274;9.754;2023-05-14T06:12:30;13.10;99.90
24772;DHT22;12870;52.274;9.754;2023-05-14T06:14:56;13.20;99.90
24772;DHT22;12870;52.274;9.754;2023-05-14T06:17:23;13.30;99.90
24772;DHT22;12870;52.274;9.754;2023-05-14T06:19:49;13.30;99.90
24772;DHT22;12870;52.274;9.754;2023-05-14T06:22:15;13.40;99.90
24772;DHT22;12870;52.274;9.754;2023-05-14T06:24:41;13.60;99.90
24772;DHT22;12870;52.274;9.754;2023-05-14T06:27:06;13.70;99.90
24772;DHT22;12870;52.274;9.754;2023-05-14T06:29:32;13.80;99.90
24772;DHT22;12870;52.274;9.754;2023-05-14T06:32:01;13.90;99.90
24772;DHT22;12870;52.274;9.754;2023-05-14T06:34:28;14.00;99.90
24772;DHT22;12870;52.274;9.754;2023-05-14T06:36:54;14.10;99.90
24772;DHT22;12870;52.274;9.754;2023-05-14T06:39:19;14.20;99.90
24772;DHT22;12870;52.274;9.754;2023-05-14T06:41:45;14.30;99.90
24772;DHT22;12870;52.274;9.754;2023-05-14T06:44:11;14.40;99.90
24772;DHT22;12870;52.274;9.754;2023-05-14T06:46:37;14.50;99.90
24772;DHT22;12870;52.274;9.754;2023-05-14T06:49:02;14.60;99.90
24772;DHT22;12870;52.274;9.754;2023-05-14T06:51:28;14.70;99.90
24772;DHT22;12870;52.274;9.754;2023-05-14T06:53:54;14.80;99.90
24772;DHT22;12870;52.274;9.754;2023-05-14T06:56:21;14.90;99.90
24772;DHT22;12870;52.274;9.754;2023-05-14T06:58:47;15.00;99.90
24772;DHT22;12870;52.274;9.754;2023-05-14T07:01:12;15.10;99.90
24772;DHT22;12870;52.274;9.754;2023-05-14T07:03:38;15.20;99.90
24772;DHT22;12870;52.274;9.754;2023-05-14T07:06:04;15.20;99.90
24772;DHT22;12870;52.274;9.754;2023-05-14T07:08:31;15.30;99.90
24772;DHT22;12870;52.274;9.754;2023-05-14T07:10:56;15.40;99.90
24772;DHT22;12870;52.274;9.754;2023-05-14T07:13:22;15.50;99.90
24772;DHT22;12870;52.274;9.754;2023-05-14T07:15:48;15.60;99.90
24772;DHT22;12870;52.274;9.754;2023-05-14T07:18:15;15.80;99.90
24772;DHT22;12870;52.274;9.754;2023-05-14T07:20:41;15.80;99.90
24772;DHT22;12870;52.274;9.754;2023-05-14T07:23:07;15.80;99.90
24772;DHT22;12870;52.274;9.754;2023-05-14T07:25:32;15.90;99.90
24772;DHT22;12870;52.274;9.754;2023-05-14T07:27:58;16.00;99.90
24772;DHT22;12870;52.274;9.754;2023-05-14T07:30:24;16.10;99.90
24772;DHT22;12870;52.274;9.754;2023-05-14T07:32:49;16.20;99.90
24772;DHT22;12870;52.274;9.754;2023-05-14T07:35:15;16.30;99.90
24772;DHT22;12870;52.274;9.754;2023-05-14T07:37:41;16.50;99.90
24772;DHT22;12870;52.274;9.754;2023-05-14T07:40:07;16.70;99.90
24772;DHT22;12870;52.274;9.754;2023-05-14T07:42:33;17.10;99.90
24772;DHT22;12870;52.274;9.754;2023-05-14T07:44:59;17.30;99.90
24772;DHT22;12870;52.274;9.754;2023-05-14T07:47:25;17.50;99.90
24772;DHT22;12870;52.274;9.754;2023-05-14T07:49:54;17.80;99.90
24772;DHT22;12870;52.274;9.754;2023-05-14T07:52:19;18.10;99.90
24772;DHT22;12870;52.274;9.754;2023-05-14T07:54:45;18.40;99.90
24772;DHT22;12870;52.274;9.754;2023-05-14T07:57:11;18.60;99.90
24772;DHT22;12870;52.274;9.754;2023-05-14T07:59:36;18.70;99.90
24772;DHT22;12870;52.274;9.754;2023-05-14T08:02:02;18.80;99.90
24772;DHT22;12870;52.274;9.754;2023-05-14T08:04:28;18.90;99.90
24772;DHT22;12870;52.274;9.754;2023-05-14T08:06:53;19.00;99.90
24772;DHT22;12870;52.274;9.754;2023-05-14T08:09:20;19.10;99.90
24772;DHT22;12870;52.274;9.754;2023-05-14T08:11:46;19.10;99.90
24772;DHT22;12870;52.274;9.754;2023-05-14T08:14:12;19.10;99.90
24772;DHT22;12870;52.274;9.754;2023-05-14T08:16:37;19.10;99.90
24772;DHT22;12870;52.274;9.754;2023-05-14T08:19:03;19.00;99.90
24772;DHT22;12870;52.274;9.754;2023-05-14T08:21:28;19.00;99.90
24772;DHT22;12870;52.274;9.754;2023-05-14T08:23:55;18.90;99.90
24772;DHT22;12870;52.274;9.754;2023-05-14T08:26:21;18.90;99.90
24772;DHT22;12870;52.274;9.754;2023-05-14T08:28:47;19.00;99.90
24772;DHT22;12870;52.274;9.754;2023-05-14T08:31:12;19.00;99.90
24772;DHT22;12870;52.274;9.754;2023-05-14T08:33:39;19.00;99.90
24772;DHT22;12870;52.274;9.754;2023-05-14T08:36:05;19.00;99.90
24772;DHT22;12870;52.274;9.754;2023-05-14T08:38:31;19.10;99.90
24772;DHT22;12870;52.274;9.754;2023-05-14T08:40:58;19.10;99.90
24772;DHT22;12870;52.274;9.754;2023-05-14T08:43:44;19.20;99.90
24772;DHT22;12870;52.274;9.754;2023-05-14T08:46:13;19.30;99.90
24772;DHT22;12870;52.274;9.754;2023-05-14T08:48:41;19.50;99.90
24772;DHT22;12870;52.274;9.754;2023-05-14T08:51:08;19.60;99.90
24772;DHT22;12870;52.274;9.754;2023-05-14T08:53:34;19.80;99.90
24772;DHT22;12870;52.274;9.754;2023-05-14T08:56:04;19.90;99.90
24772;DHT22;12870;52.274;9.754;2023-05-14T08:58:31;20.00;99.90
24772;DHT22;12870;52.274;9.754;2023-05-14T09:00:56;20.10;99.90
24772;DHT22;12870;52.274;9.754;2023-05-14T09:03:22;20.10;99.90
24772;DHT22;12870;52.274;9.754;2023-05-14T09:05:49;20.20;99.90
24772;DHT22;12870;52.274;9.754;2023-05-14T09:08:16;20.20;99.90
24772;DHT22;12870;52.274;9.754;2023-05-14T09:10:42;20.30;99.90
24772;DHT22;12870;52.274;9.754;2023-05-14T09:13:07;20.50;99.90
24772;DHT22;12870;52.274;9.754;2023-05-14T09:15:36;20.70;99.90
24772;DHT22;12870;52.274;9.754;2023-05-14T09:18:04;20.90;99.90
24772;DHT22;12870;52.274;9.754;2023-05-14T09:20:30;21.10;99.90
24772;DHT22;12870;52.274;9.754;2023-05-14T09:22:57;21.30;99.90
24772;DHT22;12870;52.274;9.754;2023-05-14T09:25:30;21.50;99.90
24772;DHT22;12870;52.274;9.754;2023-05-14T09:27:56;21.90;99.90
24772;DHT22;12870;52.274;9.754;2023-05-14T09:30:24;22.30;99.90
24772;DHT22;12870;52.274;9.754;2023-05-14T09:32:53;22.60;99.90
24772;DHT22;12870;52.274;9.754;2023-05-14T09:35:22;22.80;99.90
24772;DHT22;12870;52.274;9.754;2023-05-14T09:37:50;23.00;99.90
24772;DHT22;12870;52.274;9.754;2023-05-14T09:40:17;22.90;99.90
24772;DHT22;12870;52.274;9.754;2023-05-14T09:42:44;23.00;99.90
24772;DHT22;12870;52.274;9.754;2023-05-14T09:45:10;23.50;99.90
24772;DHT22;12870;52.274;9.754;2023-05-14T09:47:37;23.60;99.90
24772;DHT22;12870;52.274;9.754;2023-05-14T09:50:04;23.70;99.90
24772;DHT22;12870;52.274;9.754;2023-05-14T09:52:30;23.70;99.90
24772;DHT22;12870;52.274;9.754;2023-05-14T09:54:56;23.80;99.90
24772;DHT22;12870;52.274;9.754;2023-05-14T09:57:21;23.70;99.90
24772;DHT22;12870;52.274;9.754;2023-05-14T09:59:47;23.90;99.90
24772;DHT22;12870;52.274;9.754;2023-05-14T10:02:25;23.80;99.90
24772;DHT22;12870;52.274;9.754;2023-05-14T10:04:53;23.80;99.90
24772;DHT22;12870;52.274;9.754;2023-05-14T10:07:24;24.20;99.90
24772;DHT22;12870;52.274;9.754;2023-05-14T10:09:56;24.60;99.90
24772;DHT22;12870;52.274;9.754;2023-05-14T10:12:22;24.80;99.90
24772;DHT22;12870;52.274;9.754;2023-05-14T10:14:49;25.30;99.90
24772;DHT22;12870;52.274;9.754;2023-05-14T10:17:20;25.50;99.90
24772;DHT22;12870;52.274;9.754;2023-05-14T10:19:51;25.60;99.90
24772;DHT22;12870;52.274;9.754;2023-05-14T10:22:21;25.70;99.90
24772;DHT22;12870;52.274;9.754;2023-05-14T10:24:49;25.30;99.90
24772;DHT22;12870;52.274;9.754;2023-05-14T10:27:21;25.20;99.90
24772;DHT22;12870;52.274;9.754;2023-05-14T10:29:51;25.60;99.90
24772;DHT22;12870;52.274;9.754;2023-05-14T10:32:22;25.70;99.90
24772;DHT22;12870;52.274;9.754;2023-05-14T10:34:50;25.90;99.90
24772;DHT22;12870;52.274;9.754;2023-05-14T10:37:19;26.10;99.00
24772;DHT22;12870;52.274;9.754;2023-05-14T10:39:47;26.60;99.10
24772;DHT22;12870;52.274;9.754;2023-05-14T10:42:25;27.00;99.40
24772;DHT22;12870;52.274;9.754;2023-05-14T10:44:55;27.20;96.80
24772;DHT22;12870;52.274;9.754;2023-05-14T10:47:28;26.90;94.40
24772;DHT22;12870;52.274;9.754;2023-05-14T10:49:57;26.50;94.20
24772;DHT22;12870;52.274;9.754;2023-05-14T10:52:24;26.20;93.00
24772;DHT22;12870;52.274;9.754;2023-05-14T10:57:20;26.10;93.60
24772;DHT22;12870;52.274;9.754;2023-05-14T10:59:52;26.20;94.60
24772;DHT22;12870;52.274;9.754;2023-05-14T11:02:23;26.10;94.40
24772;DHT22;12870;52.274;9.754;2023-05-14T11:05:15;26.20;93.30
24772;DHT22;12870;52.274;9.754;2023-05-14T11:07:49;26.10;91.80
24772;DHT22;12870;52.274;9.754;2023-05-14T11:10:19;26.00;91.00
24772;DHT22;12870;52.274;9.754;2023-05-14T11:12:48;26.00;91.70
24772;DHT22;12870;52.274;9.754;2023-05-14T11:15:16;26.20;92.10
24772;DHT22;12870;52.274;9.754;2023-05-14T11:17:43;26.20;90.20
24772;DHT22;12870;52.274;9.754;2023-05-14T11:20:10;26.30;90.30
24772;DHT22;12870;52.274;9.754;2023-05-14T11:22:36;26.50;87.90
24772;DHT22;12870;52.274;9.754;2023-05-14T11:25:03;26.60;90.40
24772;DHT22;12870;52.274;9.754;2023-05-14T11:27:30;26.70;90.00
24772;DHT22;12870;52.274;9.754;2023-05-14T11:29:56;26.90;90.40
24772;DHT22;12870;52.274;9.754;2023-05-14T11:32:22;26.70;87.60
24772;DHT22;12870;52.274;9.754;2023-05-14T11:34:48;26.70;88.60
24772;DHT22;12870;52.274;9.754;2023-05-14T11:37:15;27.00;90.00
24772;DHT22;12870;52.274;9.754;2023-05-14T11:39:49;27.60;84.90
24772;DHT22;12870;52.274;9.754;2023-05-14T11:42:15;27.80;85.60
24772;DHT22;12870;52.274;9.754;2023-05-14T11:44:44;27.80;84.50
24772;DHT22;12870;52.274;9.754;2023-05-14T11:47:10;27.80;82.80
24772;DHT22;12870;52.274;9.754;2023-05-14T11:49:36;27.90;83.80
24772;DHT22;12870;52.274;9.754;2023-05-14T11:52:07;27.90;81.20
24772;DHT22;12870;52.274;9.754;2023-05-14T11:54:33;27.80;81.90
24772;DHT22;12870;52.274;9.754;2023-05-14T11:57:08;27.90;80.40
24772;DHT22;12870;52.274;9.754;2023-05-14T11:59:33;28.00;81.80
24772;DHT22;12870;52.274;9.754;2023-05-14T12:02:01;28.50;79.50
24772;DHT22;12870;52.274;9.754;2023-05-14T12:04:27;28.90;82.20
24772;DHT22;12870;52.274;9.754;2023-05-14T12:06:56;29.10;73.70
24772;DHT22;12870;52.274;9.754;2023-05-14T12:09:22;29.20;73.90
24772;DHT22;12870;52.274;9.754;2023-05-14T12:11:49;29.30;77.20
24772;DHT22;12870;52.274;9.754;2023-05-14T12:14:17;29.30;71.80
24772;DHT22;12870;52.274;9.754;2023-05-14T12:16:44;29.10;70.90
24772;DHT22;12870;52.274;9.754;2023-05-14T12:19:12;29.30;67.00
24772;DHT22;12870;52.274;9.754;2023-05-14T12:21:38;29.50;66.80
24772;DHT22;12870;52.274;9.754;2023-05-14T12:24:12;29.50;65.80
24772;DHT22;12870;52.274;9.754;2023-05-14T12:26:39;29.60;65.30
24772;DHT22;12870;52.274;9.754;2023-05-14T12:29:05;29.70;64.50
24772;DHT22;12870;52.274;9.754;2023-05-14T12:31:32;29.80;66.00
24772;DHT22;12870;52.274;9.754;2023-05-14T12:33:58;30.10;63.00
24772;DHT22;12870;52.274;9.754;2023-05-14T12:36:24;29.80;64.70
24772;DHT22;12870;52.274;9.754;2023-05-14T12:38:59;29.70;65.30
24772;DHT22;12870;52.274;9.754;2023-05-14T12:41:26;29.90;64.90
24772;DHT22;12870;52.274;9.754;2023-05-14T12:43:52;30.00;64.10
24772;DHT22;12870;52.274;9.754;2023-05-14T12:46:18;30.30;63.90
24772;DHT22;12870;52.274;9.754;2023-05-14T12:48:44;30.70;58.10
24772;DHT22;12870;52.274;9.754;2023-05-14T12:51:10;30.60;59.30
24772;DHT22;12870;52.274;9.754;2023-05-14T12:53:36;30.50;58.80
24772;DHT22;12870;52.274;9.754;2023-05-14T12:56:02;30.70;59.30
24772;DHT22;12870;52.274;9.754;2023-05-14T12:58:28;30.90;59.00
24772;DHT22;12870;52.274;9.754;2023-05-14T13:00:54;31.10;58.00
24772;DHT22;12870;52.274;9.754;2023-05-14T13:03:20;31.10;56.50
24772;DHT22;12870;52.274;9.754;2023-05-14T13:05:46;30.90;56.50
24772;DHT22;12870;52.274;9.754;2023-05-14T13:08:12;30.70;56.10
24772;DHT22;12870;52.274;9.754;2023-05-14T13:10:45;30.70;54.00
24772;DHT22;12870;52.274;9.754;2023-05-14T13:13:10;30.70;53.00
24772;DHT22;12870;52.274;9.754;2023-05-14T13:15:37;30.80;54.60
24772;DHT22;12870;52.274;9.754;2023-05-14T13:18:03;30.50;53.80
24772;DHT22;12870;52.274;9.754;2023-05-14T13:20:29;30.30;52.20
24772;DHT22;12870;52.274;9.754;2023-05-14T13:22:56;30.40;53.10
24772;DHT22;12870;52.274;9.754;2023-05-14T13:25:22;30.80;54.20
24772;DHT22;12870;52.274;9.754;2023-05-14T13:27:47;30.70;52.50
24772;DHT22;12870;52.274;9.754;2023-05-14T13:30:18;30.90;53.20
24772;DHT22;12870;52.274;9.754;2023-05-14T13:32:44;31.30;54.40
24772;DHT22;12870;52.274;9.754;2023-05-14T13:35:10;31.40;52.30
24772;DHT22;12870;52.274;9.754;2023-05-14T13:37:36;31.40;50.70
24772;DHT22;12870;52.274;9.754;2023-05-14T13:40:02;31.30;53.80
24772;DHT22;12870;52.274;9.754;2023-05-14T13:42:29;31.30;49.80
24772;DHT22;12870;52.274;9.754;2023-05-14T13:44:57;30.90;51.90
24772;DHT22;12870;52.274;9.754;2023-05-14T13:47:24;30.80;51.50
24772;DHT22;12870;52.274;9.754;2023-05-14T13:49:50;30.00;49.10
24772;DHT22;12870;52.274;9.754;2023-05-14T13:52:16;29.30;45.20
24772;DHT22;12870;52.274;9.754;2023-05-14T13:54:42;28.60;47.30
24772;DHT22;12870;52.274;9.754;2023-05-14T13:57:07;28.20;50.80
24772;DHT22;12870;52.274;9.754;2023-05-14T13:59:33;28.60;50.90
24772;DHT22;12870;52.274;9.754;2023-05-14T14:01:59;29.10;52.90
24772;DHT22;12870;52.274;9.754;2023-05-14T14:04:24;29.80;52.10
24772;DHT22;12870;52.274;9.754;2023-05-14T14:06:53;30.30;55.50
24772;DHT22;12870;52.274;9.754;2023-05-14T14:09:19;30.40;50.00
24772;DHT22;12870;52.274;9.754;2023-05-14T14:11:45;30.60;50.60
24772;DHT22;12870;52.274;9.754;2023-05-14T14:14:11;30.60;50.40
24772;DHT22;12870;52.274;9.754;2023-05-14T14:16:37;30.40;52.20
24772;DHT22;12870;52.274;9.754;2023-05-14T14:19:02;30.70;50.10
24772;DHT22;12870;52.274;9.754;2023-05-14T14:21:28;30.10;48.90
24772;DHT22;12870;52.274;9.754;2023-05-14T14:23:54;29.10;49.60
24772;DHT22;12870;52.274;9.754;2023-05-14T14:26:20;27.90;52.90
24772;DHT22;12870;52.274;9.754;2023-05-14T14:28:46;27.20;53.80
24772;DHT22;12870;52.274;9.754;2023-05-14T14:31:12;26.30;53.10
24772;DHT22;12870;52.274;9.754;2023-05-14T14:33:37;25.80;55.00
24772;DHT22;12870;52.274;9.754;2023-05-14T14:36:04;25.40;56.00
24772;DHT22;12870;52.274;9.754;2023-05-14T14:38:30;25.50;57.70
24772;DHT22;12870;52.274;9.754;2023-05-14T14:40:56;25.40;57.30
24772;DHT22;12870;52.274;9.754;2023-05-14T14:43:23;25.20;57.70
24772;DHT22;12870;52.274;9.754;2023-05-14T14:45:48;24.90;58.60
24772;DHT22;12870;52.274;9.754;2023-05-14T14:48:32;24.70;59.60
24772;DHT22;12870;52.274;9.754;2023-05-14T14:51:07;24.50;58.60
24772;DHT22;12870;52.274;9.754;2023-05-14T14:53:34;24.40;60.00
24772;DHT22;12870;52.274;9.754;2023-05-14T14:56:00;24.20;61.60
24772;DHT22;12870;52.274;9.754;2023-05-14T14:58:26;24.10;61.00
24772;DHT22;12870;52.274;9.754;2023-05-14T15:00:54;23.90;60.40
24772;DHT22;12870;52.274;9.754;2023-05-14T15:03:20;23.60;59.70
24772;DHT22;12870;52.274;9.754;2023-05-14T15:05:47;23.60;58.60
24772;DHT22;12870;52.274;9.754;2023-05-14T15:08:13;23.50;60.20
24772;DHT22;12870;52.274;9.754;2023-05-14T15:10:38;23.40;60.50
24772;DHT22;12870;52.274;9.754;2023-05-14T15:13:06;23.10;61.80
24772;DHT22;12870;52.274;9.754;2023-05-14T15:15:33;22.80;60.00
24772;DHT22;12870;52.274;9.754;2023-05-14T15:17:58;22.70;60.70
24772;DHT22;12870;52.274;9.754;2023-05-14T15:20:24;22.60;62.20
24772;DHT22;12870;52.274;9.754;2023-05-14T15:22:50;22.60;62.80
24772;DHT22;12870;52.274;9.754;2023-05-14T15:25:18;22.60;62.50
24772;DHT22;12870;52.274;9.754;2023-05-14T15:27:44;22.50;63.00
24772;DHT22;12870;52.274;9.754;2023-05-14T15:30:10;22.40;60.90
24772;DHT22;12870;52.274;9.754;2023-05-14T15:32:36;22.20;61.50
24772;DHT22;12870;52.274;9.754;2023-05-14T15:35:02;22.10;62.30
24772;DHT22;12870;52.274;9.754;2023-05-14T15:37:37;22.00;63.00
24772;DHT22;12870;52.274;9.754;2023-05-14T15:40:04;22.10;62.80
24772;DHT22;12870;52.274;9.754;2023-05-14T15:42:37;22.10;66.40